sensor_id;sensor_type;location;lat;lon;timestamp;P1;durP1;ratioP1;P2;durP2;ratioP2
70675;SDS011;59069;52.242;20.900;2023-12-20T00:00:59;18.85;;;7.95;;
70675;SDS011;59069;52.242;20.900;2023-12-20T00:03:25;20.47;;;9.70;;
70675;SDS011;59069;52.242;20.900;2023-12-20T00:05:50;19.60;;;9.65;;
70675;SDS011;59069;52.242;20.900;2023-12-20T00:08:16;18.90;;;8.83;;
70675;SDS011;59069;52.242;20.900;2023-12-20T00:10:45;18.52;;;8.90;;
70675;SDS011;59069;52.242;20.900;2023-12-20T00:13:10;16.13;;;8.80;;
70675;SDS011;59069;52.242;20.900;2023-12-20T00:15:36;18.93;;;9.67;;
70675;SDS011;59069;52.242;20.900;2023-12-20T00:18:02;17.77;;;8.80;;
70675;SDS011;59069;52.242;20.900;2023-12-20T00:20:28;17.27;;;9.63;;
70675;SDS011;59069;52.242;20.900;2023-12-20T00:22:55;19.48;;;8.60;;
70675;SDS011;59069;52.242;20.900;2023-12-20T00:25:22;16.60;;;8.80;;
70675;SDS011;59069;52.242;20.900;2023-12-20T00:27:48;17.63;;;8.70;;
70675;SDS011;59069;52.242;20.900;2023-12-20T00:30:14;19.17;;;9.25;;
70675;SDS011;59069;52.242;20.900;2023-12-20T00:32:39;20.50;;;8.83;;
70675;SDS011;59069;52.242;20.900;2023-12-20T00:35:11;18.10;;;8.85;;
70675;SDS011;59069;52.242;20.900;2023-12-20T00:37:42;17.38;;;8.80;;
70675;SDS011;59069;52.242;20.900;2023-12-20T00:40:08;17.33;;;8.23;;
70675;SDS011;59069;52.242;20.900;2023-12-20T00:42:34;20.02;;;8.48;;
70675;SDS011;59069;52.242;20.900;2023-12-20T00:45:01;17.25;;;8.18;;
70675;SDS011;59069;52.242;20.900;2023-12-20T00:47:27;18.30;;;8.45;;
70675;SDS011;59069;52.242;20.900;2023-12-20T00:49:53;19.07;;;8.73;;
70675;SDS011;59069;52.242;20.900;2023-12-20T00:52:18;16.10;;;8.57;;
70675;SDS011;59069;52.242;20.900;2023-12-20T00:54:44;16.97;;;8.27;;
70675;SDS011;59069;52.242;20.900;2023-12-20T00:57:10;17.92;;;8.15;;
70675;SDS011;59069;52.242;20.900;2023-12-20T00:59:36;17.03;;;7.60;;
70675;SDS011;59069;52.242;20.900;2023-12-20T01:02:01;17.10;;;8.45;;
70675;SDS011;59069;52.242;20.900;2023-12-20T01:04:27;14.90;;;7.90;;
70675;SDS011;59069;52.242;20.900;2023-12-20T01:06:53;16.67;;;7.77;;
70675;SDS011;59069;52.242;20.900;2023-12-20T01:09:18;14.30;;;7.82;;
70675;SDS011;59069;52.242;20.900;2023-12-20T01:11:44;18.80;;;7.85;;
70675;SDS011;59069;52.242;20.900;2023-12-20T01:14:12;17.17;;;8.77;;
70675;SDS011;59069;52.242;20.900;2023-12-20T01:16:37;16.50;;;7.93;;
70675;SDS011;59069;52.242;20.900;2023-12-20T01:19:03;16.50;;;7.90;;
70675;SDS011;59069;52.242;20.900;2023-12-20T01:21:29;17.07;;;8.17;;
70675;SDS011;59069;52.242;20.900;2023-12-20T01:23:54;16.87;;;7.90;;
70675;SDS011;59069;52.242;20.900;2023-12-20T01:26:20;17.33;;;7.50;;
70675;SDS011;59069;52.242;20.900;2023-12-20T01:28:45;15.70;;;8.00;;
70675;SDS011;59069;52.242;20.900;2023-12-20T01:31:11;15.93;;;7.88;;
70675;SDS011;59069;52.242;20.900;2023-12-20T01:33:36;14.43;;;7.30;;
70675;SDS011;59069;52.242;20.900;2023-12-20T01:36:02;15.77;;;7.67;;
70675;SDS011;59069;52.242;20.900;2023-12-20T01:38:28;14.35;;;6.47;;
70675;SDS011;59069;52.242;20.900;2023-12-20T01:40:54;16.05;;;7.35;;
70675;SDS011;59069;52.242;20.900;2023-12-20T01:43:20;15.37;;;7.40;;
70675;SDS011;59069;52.242;20.900;2023-12-20T01:45:46;15.88;;;7.60;;
70675;SDS011;59069;52.242;20.900;2023-12-20T01:48:12;15.63;;;7.73;;
70675;SDS011;59069;52.242;20.900;2023-12-20T01:50:39;15.35;;;7.78;;
70675;SDS011;59069;52.242;20.900;2023-12-20T01:53:05;14.55;;;7.25;;
70675;SDS011;59069;52.242;20.900;2023-12-20T01:55:34;14.40;;;6.63;;
70675;SDS011;59069;52.242;20.900;2023-12-20T01:58:04;15.15;;;7.15;;
70675;SDS011;59069;52.242;20.900;2023-12-20T02:00:30;12.90;;;6.37;;
70675;SDS011;59069;52.242;20.900;2023-12-20T02:02:56;12.02;;;5.70;;
70675;SDS011;59069;52.242;20.900;2023-12-20T02:05:24;15.25;;;6.82;;
70675;SDS011;59069;52.242;20.900;2023-12-20T02:07:50;12.77;;;6.53;;
70675;SDS011;59069;52.242;20.900;2023-12-20T02:10:16;12.40;;;6.37;;
70675;SDS011;59069;52.242;20.900;2023-12-20T02:12:42;14.32;;;6.93;;
70675;SDS011;59069;52.242;20.900;2023-12-20T02:15:08;14.07;;;6.57;;
70675;SDS011;59069;52.242;20.900;2023-12-20T02:17:33;12.95;;;6.03;;
70675;SDS011;59069;52.242;20.900;2023-12-20T02:19:59;11.50;;;5.63;;
70675;SDS011;59069;52.242;20.900;2023-12-20T02:22:24;11.05;;;4.97;;
70675;SDS011;59069;52.242;20.900;2023-12-20T02:24:53;12.10;;;5.67;;
70675;SDS011;59069;52.242;20.900;2023-12-20T02:27:19;12.18;;;5.57;;
70675;SDS011;59069;52.242;20.900;2023-12-20T02:29:46;9.77;;;4.93;;
70675;SDS011;59069;52.242;20.900;2023-12-20T02:32:13;11.77;;;4.78;;
70675;SDS011;59069;52.242;20.900;2023-12-20T02:34:38;10.67;;;5.20;;
70675;SDS011;59069;52.242;20.900;2023-12-20T02:37:04;10.37;;;3.67;;
70675;SDS011;59069;52.242;20.900;2023-12-20T02:39:29;11.93;;;3.70;;
70675;SDS011;59069;52.242;20.900;2023-12-20T02:41:55;8.33;;;3.27;;
70675;SDS011;59069;52.242;20.900;2023-12-20T02:44:21;7.40;;;3.30;;
70675;SDS011;59069;52.242;20.900;2023-12-20T02:46:49;7.73;;;2.83;;
70675;SDS011;59069;52.242;20.900;2023-12-20T02:49:15;7.88;;;2.97;;
70675;SDS011;59069;52.242;20.900;2023-12-20T02:51:41;7.83;;;3.23;;
70675;SDS011;59069;52.242;20.900;2023-12-20T02:54:06;7.97;;;2.78;;
70675;SDS011;59069;52.242;20.900;2023-12-20T02:56:32;7.70;;;2.70;;
70675;SDS011;59069;52.242;20.900;2023-12-20T02:58:58;7.78;;;2.72;;
70675;SDS011;59069;52.242;20.900;2023-12-20T03:01:24;8.10;;;3.00;;
70675;SDS011;59069;52.242;20.900;2023-12-20T03:03:49;9.83;;;3.37;;
70675;SDS011;59069;52.242;20.900;2023-12-20T03:06:16;9.70;;;3.03;;
70675;SDS011;59069;52.242;20.900;2023-12-20T03:08:43;7.22;;;2.88;;
70675;SDS011;59069;52.242;20.900;2023-12-20T03:11:09;7.70;;;2.83;;
70675;SDS011;59069;52.242;20.900;2023-12-20T03:13:34;7.10;;;2.43;;
70675;SDS011;59069;52.242;20.900;2023-12-20T03:16:00;8.15;;;2.90;;
70675;SDS011;59069;52.242;20.900;2023-12-20T03:18:25;7.70;;;2.97;;
70675;SDS011;59069;52.242;20.900;2023-12-20T03:20:53;8.02;;;2.63;;
70675;SDS011;59069;52.242;20.900;2023-12-20T03:23:18;7.20;;;2.30;;
70675;SDS011;59069;52.242;20.900;2023-12-20T03:25:44;7.82;;;2.72;;
70675;SDS011;59069;52.242;20.900;2023-12-20T03:28:09;7.13;;;2.57;;
70675;SDS011;59069;52.242;20.900;2023-12-20T03:30:35;6.67;;;2.27;;
70675;SDS011;59069;52.242;20.900;2023-12-20T03:33:01;7.00;;;2.90;;
70675;SDS011;59069;52.242;20.900;2023-12-20T03:35:26;7.53;;;2.47;;
70675;SDS011;59069;52.242;20.900;2023-12-20T03:37:52;7.07;;;2.67;;
70675;SDS011;59069;52.242;20.900;2023-12-20T03:40:17;7.47;;;2.90;;
70675;SDS011;59069;52.242;20.900;2023-12-20T03:42:43;6.40;;;2.43;;
70675;SDS011;59069;52.242;20.900;2023-12-20T03:45:09;8.15;;;2.97;;
70675;SDS011;59069;52.242;20.900;2023-12-20T03:47:34;7.90;;;2.87;;
70675;SDS011;59069;52.242;20.900;2023-12-20T03:50:00;7.50;;;2.70;;
70675;SDS011;59069;52.242;20.900;2023-12-20T03:52:25;7.27;;;2.70;;
70675;SDS011;59069;52.242;20.900;2023-12-20T03:54:51;7.27;;;2.77;;
70675;SDS011;59069;52.242;20.900;2023-12-20T03:57:16;7.10;;;2.70;;
70675;SDS011;59069;52.242;20.900;2023-12-20T03:59:42;7.15;;;2.47;;
70675;SDS011;59069;52.242;20.900;2023-12-20T04:02:07;7.77;;;3.07;;
70675;SDS011;59069;52.242;20.900;2023-12-20T04:04:33;7.10;;;2.97;;
70675;SDS011;59069;52.242;20.900;2023-12-20T04:06:58;7.30;;;2.50;;
70675;SDS011;59069;52.242;20.900;2023-12-20T04:09:24;6.97;;;3.03;;
70675;SDS011;59069;52.242;20.900;2023-12-20T04:11:50;8.73;;;3.53;;
70675;SDS011;59069;52.242;20.900;2023-12-20T04:14:16;8.55;;;3.60;;
70675;SDS011;59069;52.242;20.900;2023-12-20T04:16:41;8.57;;;3.43;;
70675;SDS011;59069;52.242;20.900;2023-12-20T04:19:07;8.95;;;3.50;;
70675;SDS011;59069;52.242;20.900;2023-12-20T04:21:33;9.63;;;4.07;;
70675;SDS011;59069;52.242;20.900;2023-12-20T04:23:58;11.07;;;4.23;;
70675;SDS011;59069;52.242;20.900;2023-12-20T04:26:24;11.32;;;4.70;;
70675;SDS011;59069;52.242;20.900;2023-12-20T04:28:49;11.33;;;4.77;;
70675;SDS011;59069;52.242;20.900;2023-12-20T04:31:15;10.90;;;4.73;;
70675;SDS011;59069;52.242;20.900;2023-12-20T04:33:40;10.73;;;5.22;;
70675;SDS011;59069;52.242;20.900;2023-12-20T04:36:06;12.47;;;5.17;;
70675;SDS011;59069;52.242;20.900;2023-12-20T04:38:34;11.02;;;5.00;;
70675;SDS011;59069;52.242;20.900;2023-12-20T04:40:59;11.53;;;5.20;;
70675;SDS011;59069;52.242;20.900;2023-12-20T04:43:25;11.93;;;5.55;;
70675;SDS011;59069;52.242;20.900;2023-12-20T04:45:50;12.00;;;5.20;;
70675;SDS011;59069;52.242;20.900;2023-12-20T04:48:16;11.37;;;5.30;;
70675;SDS011;59069;52.242;20.900;2023-12-20T04:50:41;10.93;;;5.35;;
70675;SDS011;59069;52.242;20.900;2023-12-20T04:53:07;11.33;;;4.90;;
70675;SDS011;59069;52.242;20.900;2023-12-20T04:55:32;9.17;;;4.50;;
70675;SDS011;59069;52.242;20.900;2023-12-20T04:57:58;10.68;;;4.50;;
70675;SDS011;59069;52.242;20.900;2023-12-20T05:00:24;12.00;;;5.03;;
70675;SDS011;59069;52.242;20.900;2023-12-20T05:02:49;15.18;;;5.53;;
70675;SDS011;59069;52.242;20.900;2023-12-20T05:05:15;11.30;;;5.40;;
70675;SDS011;59069;52.242;20.900;2023-12-20T05:07:42;13.18;;;5.80;;
70675;SDS011;59069;52.242;20.900;2023-12-20T05:10:08;13.07;;;5.67;;
70675;SDS011;59069;52.242;20.900;2023-12-20T05:12:34;12.50;;;5.50;;
70675;SDS011;59069;52.242;20.900;2023-12-20T05:15:00;13.53;;;4.97;;
70675;SDS011;59069;52.242;20.900;2023-12-20T05:17:25;11.60;;;5.37;;
70675;SDS011;59069;52.242;20.900;2023-12-20T05:19:51;12.68;;;5.75;;
70675;SDS011;59069;52.242;20.900;2023-12-20T05:22:18;13.90;;;5.80;;
70675;SDS011;59069;52.242;20.900;2023-12-20T05:24:44;12.80;;;5.43;;
70675;SDS011;59069;52.242;20.900;2023-12-20T05:27:10;12.30;;;5.63;;
70675;SDS011;59069;52.242;20.900;2023-12-20T05:29:36;14.60;;;6.27;;
70675;SDS011;59069;52.242;20.900;2023-12-20T05:32:02;13.10;;;6.05;;
70675;SDS011;59069;52.242;20.900;2023-12-20T05:34:30;14.18;;;6.53;;
70675;SDS011;59069;52.242;20.900;2023-12-20T05:36:56;14.65;;;6.00;;
70675;SDS011;59069;52.242;20.900;2023-12-20T05:39:22;13.60;;;6.03;;
70675;SDS011;59069;52.242;20.900;2023-12-20T05:41:48;16.48;;;6.22;;
70675;SDS011;59069;52.242;20.900;2023-12-20T05:44:13;14.87;;;6.00;;
70675;SDS011;59069;52.242;20.900;2023-12-20T05:46:39;12.90;;;6.50;;
70675;SDS011;59069;52.242;20.900;2023-12-20T05:49:05;13.45;;;5.85;;
70675;SDS011;59069;52.242;20.900;2023-12-20T05:51:31;12.52;;;5.93;;
70675;SDS011;59069;52.242;20.900;2023-12-20T05:53:56;12.23;;;5.87;;
70675;SDS011;59069;52.242;20.900;2023-12-20T05:56:23;12.73;;;6.15;;
70675;SDS011;59069;52.242;20.900;2023-12-20T05:58:49;13.40;;;6.33;;
70675;SDS011;59069;52.242;20.900;2023-12-20T06:01:14;13.40;;;5.78;;
70675;SDS011;59069;52.242;20.900;2023-12-20T06:03:42;11.48;;;5.72;;
70675;SDS011;59069;52.242;20.900;2023-12-20T06:06:08;16.40;;;6.33;;
70675;SDS011;59069;52.242;20.900;2023-12-20T06:08:34;12.35;;;5.80;;
70675;SDS011;59069;52.242;20.900;2023-12-20T06:11:00;13.07;;;6.15;;
70675;SDS011;59069;52.242;20.900;2023-12-20T06:13:25;11.20;;;4.77;;
70675;SDS011;59069;52.242;20.900;2023-12-20T06:15:52;12.98;;;5.40;;
70675;SDS011;59069;52.242;20.900;2023-12-20T06:18:19;12.20;;;5.45;;
70675;SDS011;59069;52.242;20.900;2023-12-20T06:20:45;12.37;;;5.30;;
70675;SDS011;59069;52.242;20.900;2023-12-20T06:23:10;14.80;;;6.10;;
70675;SDS011;59069;52.242;20.900;2023-12-20T06:25:36;12.77;;;5.38;;
70675;SDS011;59069;52.242;20.900;2023-12-20T06:28:01;11.47;;;4.97;;
70675;SDS011;59069;52.242;20.900;2023-12-20T06:30:27;11.48;;;5.43;;
70675;SDS011;59069;52.242;20.900;2023-12-20T06:32:53;13.67;;;5.03;;
70675;SDS011;59069;52.242;20.900;2023-12-20T06:35:20;12.07;;;5.10;;
70675;SDS011;59069;52.242;20.900;2023-12-20T06:37:45;12.23;;;5.57;;
70675;SDS011;59069;52.242;20.900;2023-12-20T06:40:11;11.45;;;5.43;;
70675;SDS011;59069;52.242;20.900;2023-12-20T06:42:37;12.20;;;5.57;;
70675;SDS011;59069;52.242;20.900;2023-12-20T06:45:03;11.07;;;5.50;;
70675;SDS011;59069;52.242;20.900;2023-12-20T06:47:29;12.73;;;5.28;;
70675;SDS011;59069;52.242;20.900;2023-12-20T06:49:55;11.77;;;5.30;;
70675;SDS011;59069;52.242;20.900;2023-12-20T06:52:20;12.77;;;5.03;;
70675;SDS011;59069;52.242;20.900;2023-12-20T06:54:46;11.83;;;5.17;;
70675;SDS011;59069;52.242;20.900;2023-12-20T06:57:11;11.10;;;5.50;;
70675;SDS011;59069;52.242;20.900;2023-12-20T06:59:40;12.65;;;6.05;;
70675;SDS011;59069;52.242;20.900;2023-12-20T07:02:06;11.13;;;4.87;;
70675;SDS011;59069;52.242;20.900;2023-12-20T07:04:33;12.48;;;5.90;;
70675;SDS011;59069;52.242;20.900;2023-12-20T07:06:58;14.40;;;6.68;;
70675;SDS011;59069;52.242;20.900;2023-12-20T07:09:25;13.27;;;6.00;;
70675;SDS011;59069;52.242;20.900;2023-12-20T07:11:52;14.13;;;6.20;;
70675;SDS011;59069;52.242;20.900;2023-12-20T07:14:18;11.68;;;5.80;;
70675;SDS011;59069;52.242;20.900;2023-12-20T07:16:43;13.93;;;6.13;;
70675;SDS011;59069;52.242;20.900;2023-12-20T07:19:09;13.20;;;6.35;;
70675;SDS011;59069;52.242;20.900;2023-12-20T07:21:34;16.77;;;6.47;;
70675;SDS011;59069;52.242;20.900;2023-12-20T07:24:00;12.82;;;5.30;;
70675;SDS011;59069;52.242;20.900;2023-12-20T07:26:26;13.23;;;5.83;;
70675;SDS011;59069;52.242;20.900;2023-12-20T07:28:51;13.57;;;6.07;;
70675;SDS011;59069;52.242;20.900;2023-12-20T07:31:17;12.77;;;5.70;;
70675;SDS011;59069;52.242;20.900;2023-12-20T07:33:42;14.83;;;5.80;;
70675;SDS011;59069;52.242;20.900;2023-12-20T07:36:08;12.87;;;5.90;;
70675;SDS011;59069;52.242;20.900;2023-12-20T07:38:34;13.43;;;5.80;;
70675;SDS011;59069;52.242;20.900;2023-12-20T07:40:59;12.98;;;5.78;;
70675;SDS011;59069;52.242;20.900;2023-12-20T07:43:25;15.30;;;6.47;;
70675;SDS011;59069;52.242;20.900;2023-12-20T07:45:51;13.65;;;5.82;;
70675;SDS011;59069;52.242;20.900;2023-12-20T07:48:16;13.60;;;5.73;;
70675;SDS011;59069;52.242;20.900;2023-12-20T07:50:42;14.00;;;5.75;;
70675;SDS011;59069;52.242;20.900;2023-12-20T07:53:08;12.57;;;5.67;;
70675;SDS011;59069;52.242;20.900;2023-12-20T07:55:33;14.35;;;5.38;;
70675;SDS011;59069;52.242;20.900;2023-12-20T07:57:59;12.93;;;5.20;;
70675;SDS011;59069;52.242;20.900;2023-12-20T08:00:25;12.57;;;4.80;;
70675;SDS011;59069;52.242;20.900;2023-12-20T08:02:51;11.65;;;5.57;;
70675;SDS011;59069;52.242;20.900;2023-12-20T08:05:16;12.23;;;5.20;;
70675;SDS011;59069;52.242;20.900;2023-12-20T08:07:42;11.93;;;5.00;;
70675;SDS011;59069;52.242;20.900;2023-12-20T08:10:07;13.13;;;4.85;;
70675;SDS011;59069;52.242;20.900;2023-12-20T08:12:33;11.70;;;4.80;;
70675;SDS011;59069;52.242;20.900;2023-12-20T08:14:59;12.20;;;5.10;;
70675;SDS011;59069;52.242;20.900;2023-12-20T08:17:25;11.68;;;5.10;;
70675;SDS011;59069;52.242;20.900;2023-12-20T08:19:51;17.97;;;6.80;;
70675;SDS011;59069;52.242;20.900;2023-12-20T08:22:16;12.48;;;5.28;;
70675;SDS011;59069;52.242;20.900;2023-12-20T08:24:42;12.40;;;5.20;;
70675;SDS011;59069;52.242;20.900;2023-12-20T08:27:07;11.90;;;5.27;;
70675;SDS011;59069;52.242;20.900;2023-12-20T08:29:34;12.60;;;4.32;;
70675;SDS011;59069;52.242;20.900;2023-12-20T08:32:00;11.48;;;4.75;;
70675;SDS011;59069;52.242;20.900;2023-12-20T08:34:25;12.27;;;5.07;;
70675;SDS011;59069;52.242;20.900;2023-12-20T08:36:51;13.70;;;5.78;;
70675;SDS011;59069;52.242;20.900;2023-12-20T08:39:17;11.83;;;5.10;;
70675;SDS011;59069;52.242;20.900;2023-12-20T08:41:42;10.67;;;4.70;;
70675;SDS011;59069;52.242;20.900;2023-12-20T08:44:08;11.90;;;5.07;;
70675;SDS011;59069;52.242;20.900;2023-12-20T08:46:34;10.55;;;4.30;;
70675;SDS011;59069;52.242;20.900;2023-12-20T08:49:00;10.80;;;4.15;;
70675;SDS011;59069;52.242;20.900;2023-12-20T08:51:26;11.27;;;4.50;;
70675;SDS011;59069;52.242;20.900;2023-12-20T08:53:52;9.50;;;3.95;;
70675;SDS011;59069;52.242;20.900;2023-12-20T08:56:18;11.32;;;4.55;;
70675;SDS011;59069;52.242;20.900;2023-12-20T08:58:45;12.32;;;4.43;;
70675;SDS011;59069;52.242;20.900;2023-12-20T09:01:11;11.50;;;4.50;;
70675;SDS011;59069;52.242;20.900;2023-12-20T09:03:36;11.07;;;4.18;;
70675;SDS011;59069;52.242;20.900;2023-12-20T09:06:02;12.67;;;4.50;;
70675;SDS011;59069;52.242;20.900;2023-12-20T09:08:28;11.48;;;4.30;;
70675;SDS011;59069;52.242;20.900;2023-12-20T09:10:53;12.13;;;4.43;;
70675;SDS011;59069;52.242;20.900;2023-12-20T09:13:19;11.07;;;4.70;;
70675;SDS011;59069;52.242;20.900;2023-12-20T09:15:45;11.30;;;4.25;;
70675;SDS011;59069;52.242;20.900;2023-12-20T09:18:11;10.65;;;4.68;;
70675;SDS011;59069;52.242;20.900;2023-12-20T09:20:37;9.73;;;4.17;;
70675;SDS011;59069;52.242;20.900;2023-12-20T09:23:03;11.00;;;4.50;;
70675;SDS011;59069;52.242;20.900;2023-12-20T09:25:28;12.38;;;4.70;;
70675;SDS011;59069;52.242;20.900;2023-12-20T09:27:54;10.68;;;4.00;;
70675;SDS011;59069;52.242;20.900;2023-12-20T09:30:20;11.37;;;4.67;;
70675;SDS011;59069;52.242;20.900;2023-12-20T09:32:46;11.55;;;4.93;;
70675;SDS011;59069;52.242;20.900;2023-12-20T09:35:11;10.40;;;4.43;;
70675;SDS011;59069;52.242;20.900;2023-12-20T09:37:37;10.80;;;4.23;;
70675;SDS011;59069;52.242;20.900;2023-12-20T09:40:03;9.97;;;3.80;;
70675;SDS011;59069;52.242;20.900;2023-12-20T09:42:41;11.52;;;4.53;;
70675;SDS011;59069;52.242;20.900;2023-12-20T09:45:28;10.38;;;4.00;;
70675;SDS011;59069;52.242;20.900;2023-12-20T09:47:56;11.40;;;4.23;;
70675;SDS011;59069;52.242;20.900;2023-12-20T09:50:23;9.88;;;4.03;;
70675;SDS011;59069;52.242;20.900;2023-12-20T09:52:50;9.90;;;4.07;;
70675;SDS011;59069;52.242;20.900;2023-12-20T09:55:17;11.32;;;4.43;;
70675;SDS011;59069;52.242;20.900;2023-12-20T09:57:44;10.20;;;4.00;;
70675;SDS011;59069;52.242;20.900;2023-12-20T10:00:10;11.57;;;4.50;;
70675;SDS011;59069;52.242;20.900;2023-12-20T10:02:37;9.55;;;4.15;;
70675;SDS011;59069;52.242;20.900;2023-12-20T10:05:06;10.07;;;3.45;;
70675;SDS011;59069;52.242;20.900;2023-12-20T10:07:34;10.68;;;3.83;;
70675;SDS011;59069;52.242;20.900;2023-12-20T10:10:00;8.90;;;3.78;;
70675;SDS011;59069;52.242;20.900;2023-12-20T10:12:27;9.83;;;4.10;;
70675;SDS011;59069;52.242;20.900;2023-12-20T10:14:53;10.80;;;4.03;;
70675;SDS011;59069;52.242;20.900;2023-12-20T10:17:18;9.80;;;3.70;;
70675;SDS011;59069;52.242;20.900;2023-12-20T10:19:46;10.35;;;4.07;;
70675;SDS011;59069;52.242;20.900;2023-12-20T10:22:12;12.27;;;4.90;;
70675;SDS011;59069;52.242;20.900;2023-12-20T10:24:37;10.45;;;4.25;;
70675;SDS011;59069;52.242;20.900;2023-12-20T10:29:33;10.68;;;4.40;;
70675;SDS011;59069;52.242;20.900;2023-12-20T10:34:49;11.23;;;4.70;;
70675;SDS011;59069;52.242;20.900;2023-12-20T10:37:15;10.77;;;3.90;;
70675;SDS011;59069;52.242;20.900;2023-12-20T10:39:42;11.02;;;4.25;;
70675;SDS011;59069;52.242;20.900;2023-12-20T10:42:08;9.45;;;3.75;;
70675;SDS011;59069;52.242;20.900;2023-12-20T10:44:36;9.50;;;4.03;;
70675;SDS011;59069;52.242;20.900;2023-12-20T10:47:02;8.70;;;3.50;;
70675;SDS011;59069;52.242;20.900;2023-12-20T10:49:29;9.70;;;4.32;;
70675;SDS011;59069;52.242;20.900;2023-12-20T10:51:57;9.33;;;3.90;;
70675;SDS011;59069;52.242;20.900;2023-12-20T10:54:27;10.95;;;3.90;;
70675;SDS011;59069;52.242;20.900;2023-12-20T10:56:53;9.73;;;3.67;;
70675;SDS011;59069;52.242;20.900;2023-12-20T10:59:20;8.90;;;3.90;;
70675;SDS011;59069;52.242;20.900;2023-12-20T11:01:48;10.10;;;4.20;;
70675;SDS011;59069;52.242;20.900;2023-12-20T11:04:15;18.60;;;5.90;;
70675;SDS011;59069;52.242;20.900;2023-12-20T11:06:51;10.20;;;4.22;;
70675;SDS011;59069;52.242;20.900;2023-12-20T11:12:06;9.77;;;4.03;;
70675;SDS011;59069;52.242;20.900;2023-12-20T11:14:50;8.87;;;4.07;;
70675;SDS011;59069;52.242;20.900;2023-12-20T11:17:17;9.75;;;3.88;;
70675;SDS011;59069;52.242;20.900;2023-12-20T11:22:21;10.80;;;4.00;;
70675;SDS011;59069;52.242;20.900;2023-12-20T11:24:47;8.25;;;3.65;;
70675;SDS011;59069;52.242;20.900;2023-12-20T11:27:13;9.15;;;3.83;;
70675;SDS011;59069;52.242;20.900;2023-12-20T11:29:39;8.90;;;3.72;;
70675;SDS011;59069;52.242;20.900;2023-12-20T11:32:27;10.52;;;3.85;;
70675;SDS011;59069;52.242;20.900;2023-12-20T11:34:58;8.37;;;3.57;;
70675;SDS011;59069;52.242;20.900;2023-12-20T11:37:29;9.43;;;3.80;;
70675;SDS011;59069;52.242;20.900;2023-12-20T11:40:00;10.23;;;3.78;;
70675;SDS011;59069;52.242;20.900;2023-12-20T11:42:39;11.48;;;3.90;;
70675;SDS011;59069;52.242;20.900;2023-12-20T11:45:09;9.85;;;4.28;;
70675;SDS011;59069;52.242;20.900;2023-12-20T11:47:35;10.20;;;3.93;;
70675;SDS011;59069;52.242;20.900;2023-12-20T11:50:01;9.05;;;3.70;;
70675;SDS011;59069;52.242;20.900;2023-12-20T11:52:29;10.32;;;4.20;;
70675;SDS011;59069;52.242;20.900;2023-12-20T11:54:55;9.67;;;4.03;;
70675;SDS011;59069;52.242;20.900;2023-12-20T11:57:21;11.55;;;3.85;;
70675;SDS011;59069;52.242;20.900;2023-12-20T11:59:46;9.93;;;4.20;;
70675;SDS011;59069;52.242;20.900;2023-12-20T12:02:12;10.27;;;4.43;;
70675;SDS011;59069;52.242;20.900;2023-12-20T12:04:41;9.35;;;3.92;;
70675;SDS011;59069;52.242;20.900;2023-12-20T12:07:06;10.70;;;4.80;;
70675;SDS011;59069;52.242;20.900;2023-12-20T12:09:32;11.80;;;4.00;;
70675;SDS011;59069;52.242;20.900;2023-12-20T12:11:58;8.87;;;3.63;;
70675;SDS011;59069;52.242;20.900;2023-12-20T12:14:24;9.80;;;4.50;;
70675;SDS011;59069;52.242;20.900;2023-12-20T12:16:50;10.30;;;4.75;;
70675;SDS011;59069;52.242;20.900;2023-12-20T12:19:21;11.25;;;4.07;;
70675;SDS011;59069;52.242;20.900;2023-12-20T12:21:52;12.05;;;4.82;;
70675;SDS011;59069;52.242;20.900;2023-12-20T12:24:52;9.30;;;3.57;;
70675;SDS011;59069;52.242;20.900;2023-12-20T12:27:17;11.05;;;3.97;;
70675;SDS011;59069;52.242;20.900;2023-12-20T12:29:59;10.37;;;3.77;;
70675;SDS011;59069;52.242;20.900;2023-12-20T12:32:27;10.38;;;4.15;;
70675;SDS011;59069;52.242;20.900;2023-12-20T12:34:53;12.85;;;4.40;;
70675;SDS011;59069;52.242;20.900;2023-12-20T12:37:19;11.00;;;4.30;;
70675;SDS011;59069;52.242;20.900;2023-12-20T12:39:46;11.60;;;4.30;;
70675;SDS011;59069;52.242;20.900;2023-12-20T12:42:11;11.37;;;4.30;;
70675;SDS011;59069;52.242;20.900;2023-12-20T12:44:37;11.50;;;4.70;;
70675;SDS011;59069;52.242;20.900;2023-12-20T12:47:03;13.07;;;4.83;;
70675;SDS011;59069;52.242;20.900;2023-12-20T12:49:28;10.60;;;4.97;;
70675;SDS011;59069;52.242;20.900;2023-12-20T12:51:54;11.55;;;5.50;;
70675;SDS011;59069;52.242;20.900;2023-12-20T12:54:23;11.10;;;4.68;;
70675;SDS011;59069;52.242;20.900;2023-12-20T12:56:49;12.60;;;4.73;;
70675;SDS011;59069;52.242;20.900;2023-12-20T12:59:16;11.43;;;5.20;;
70675;SDS011;59069;52.242;20.900;2023-12-20T13:01:41;11.50;;;5.22;;
70675;SDS011;59069;52.242;20.900;2023-12-20T13:04:07;9.83;;;4.80;;
70675;SDS011;59069;52.242;20.900;2023-12-20T13:06:36;12.20;;;5.28;;
70675;SDS011;59069;52.242;20.900;2023-12-20T13:09:03;12.23;;;5.28;;
70675;SDS011;59069;52.242;20.900;2023-12-20T13:11:29;11.13;;;4.68;;
70675;SDS011;59069;52.242;20.900;2023-12-20T13:13:56;12.70;;;5.27;;
70675;SDS011;59069;52.242;20.900;2023-12-20T13:16:23;11.68;;;4.80;;
70675;SDS011;59069;52.242;20.900;2023-12-20T13:18:49;13.15;;;5.55;;
70675;SDS011;59069;52.242;20.900;2023-12-20T13:21:15;13.57;;;5.20;;
70675;SDS011;59069;52.242;20.900;2023-12-20T13:23:42;10.90;;;5.00;;
70675;SDS011;59069;52.242;20.900;2023-12-20T13:26:08;13.18;;;5.30;;
70675;SDS011;59069;52.242;20.900;2023-12-20T13:28:33;10.48;;;5.13;;
70675;SDS011;59069;52.242;20.900;2023-12-20T13:30:59;11.03;;;4.27;;
70675;SDS011;59069;52.242;20.900;2023-12-20T13:33:25;11.87;;;4.80;;
70675;SDS011;59069;52.242;20.900;2023-12-20T13:35:50;10.68;;;4.75;;
70675;SDS011;59069;52.242;20.900;2023-12-20T13:38:16;11.88;;;4.55;;
70675;SDS011;59069;52.242;20.900;2023-12-20T13:40:42;11.67;;;4.50;;
70675;SDS011;59069;52.242;20.900;2023-12-20T13:43:08;13.55;;;5.22;;
70675;SDS011;59069;52.242;20.900;2023-12-20T13:45:33;11.90;;;5.20;;
70675;SDS011;59069;52.242;20.900;2023-12-20T13:47:59;12.18;;;4.93;;
70675;SDS011;59069;52.242;20.900;2023-12-20T13:50:24;10.03;;;4.70;;
70675;SDS011;59069;52.242;20.900;2023-12-20T13:52:51;14.80;;;5.05;;
70675;SDS011;59069;52.242;20.900;2023-12-20T13:55:16;11.50;;;4.93;;
70675;SDS011;59069;52.242;20.900;2023-12-20T13:57:42;9.70;;;4.70;;
70675;SDS011;59069;52.242;20.900;2023-12-20T14:00:08;13.10;;;4.43;;
70675;SDS011;59069;52.242;20.900;2023-12-20T14:02:39;11.77;;;4.70;;
70675;SDS011;59069;52.242;20.900;2023-12-20T14:05:06;10.38;;;4.38;;
70675;SDS011;59069;52.242;20.900;2023-12-20T14:07:32;11.53;;;3.97;;
70675;SDS011;59069;52.242;20.900;2023-12-20T14:09:57;11.75;;;4.75;;
70675;SDS011;59069;52.242;20.900;2023-12-20T14:12:24;10.43;;;4.00;;
70675;SDS011;59069;52.242;20.900;2023-12-20T14:14:50;10.63;;;4.25;;
70675;SDS011;59069;52.242;20.900;2023-12-20T14:17:16;9.97;;;4.00;;
70675;SDS011;59069;52.242;20.900;2023-12-20T14:19:43;10.48;;;3.88;;
70675;SDS011;59069;52.242;20.900;2023-12-20T14:22:08;10.70;;;4.38;;
70675;SDS011;59069;52.242;20.900;2023-12-20T14:24:37;11.03;;;4.17;;
70675;SDS011;59069;52.242;20.900;2023-12-20T14:27:03;9.88;;;3.80;;
70675;SDS011;59069;52.242;20.900;2023-12-20T14:29:28;14.13;;;4.20;;